Weather at Leeds Bradford Airport

Public forecast

Using degrees Celsius for public forecast. Weather courtesy of forecast.io.

Current aviation weather report (METAR) for Leeds Bradford Airport

Retrieved 2020/10/27 14:20 UTC (1 hour ago):

EGNM 271420Z 15010KT 6000 -DZ SCT002 BKN004 09/09 Q0987

Aviation forecast (TAF) for Leeds Bradford Airport

Retrieved 2020/10/27 12:00 UTC (4 hours ago):

TAF EGNM 271054Z 2712/2812 14010KT 9999 SCT010 BKN020 TEMPO 2712/2716 3000 RADZ BKN004 BECMG 2713/2716 24012KT PROB30 TEMPO 2716/2812 25018G28KT 6000 SHRA